Time;durP1;ratioP1;P1;durP2;ratioP2;P2;SDS_P1;SDS_P2;PMS_P1;PMS_P2;Temp;Humidity;BMP_temperature;BMP_pressure;BME280_temperature;BME280_humidity;BME280_pressure;Samples;Min_cycle;Max_cycle;Signal;HPM_P1;HPM_P2
2023/06/09 00:00:36;;;;;;;19.33;5.10;;;;;;;19.06;65.52;101291.00;4974487;28;20031;-62
2023/06/09 00:03:02;;;;;;;18.77;5.40;;;;;;;18.98;66.37;101293.84;4974389;28;20476;-62
2023/06/09 00:05:32;;;;;;;17.75;5.30;;;;;;;18.92;65.92;101291.34;4978057;28;20061;-63
2023/06/09 00:07:58;;;;;;;19.50;5.30;;;;;;;18.90;66.20;101294.03;4978262;28;20358;-63
2023/06/09 00:10:24;;;;;;;18.00;5.07;;;;;;;18.86;66.64;101292.34;4980371;28;20517;-63
2023/06/09 00:12:50;;;;;;;18.10;5.10;;;;;;;18.85;66.63;101285.19;4976128;28;20031;-63
2023/06/09 00:15:15;;;;;;;18.92;5.40;;;;;;;18.75;66.86;101291.69;4977712;28;20042;-63
2023/06/09 00:17:41;;;;;;;19.45;5.20;;;;;;;18.79;66.64;101296.06;4979230;28;20039;-63
2023/06/09 00:20:08;;;;;;;18.20;5.10;;;;;;;18.54;66.99;101287.69;4980935;28;20030;-63
2023/06/09 00:22:34;;;;;;;21.02;5.50;;;;;;;18.44;67.89;101284.31;4980804;28;20153;-63
2023/06/09 00:25:00;;;;;;;17.92;5.20;;;;;;;18.43;68.11;101283.41;4977672;28;20041;-63
2023/06/09 00:27:26;;;;;;;16.08;5.13;;;;;;;18.30;68.99;101279.25;4978821;28;20043;-63
2023/06/09 00:29:51;;;;;;;19.00;5.38;;;;;;;18.23;69.20;101277.63;4980660;28;20032;-63
2023/06/09 00:32:17;;;;;;;20.33;5.75;;;;;;;18.18;69.45;101283.06;4978721;28;20388;-63
2023/06/09 00:34:43;;;;;;;20.05;5.60;;;;;;;18.09;70.38;101277.91;4979005;28;20404;-63
2023/06/09 00:37:08;;;;;;;18.30;5.55;;;;;;;18.12;71.04;101278.72;4981662;28;20042;-64
2023/06/09 00:39:33;;;;;;;18.85;5.55;;;;;;;18.08;70.73;101285.03;4978627;28;20030;-63
2023/06/09 00:41:59;;;;;;;19.70;5.72;;;;;;;18.01;71.66;101280.72;4980716;28;20033;-63
2023/06/09 00:44:24;;;;;;;17.45;5.38;;;;;;;18.03;70.20;101278.03;4980605;28;20433;-63
2023/06/09 00:46:50;;;;;;;18.38;5.30;;;;;;;17.95;71.12;101272.81;4975584;28;20114;-64
2023/06/09 00:49:15;;;;;;;18.65;5.75;;;;;;;17.90;70.63;101277.41;4980854;28;20101;-62
2023/06/09 00:51:42;;;;;;;18.80;5.60;;;;;;;17.94;70.76;101276.44;4977472;28;20038;-64
2023/06/09 00:54:07;;;;;;;19.33;5.50;;;;;;;17.87;70.83;101285.44;4976590;28;20038;-64
2023/06/09 00:56:34;;;;;;;19.10;5.60;;;;;;;17.87;70.51;101283.66;4974118;28;20031;-62
2023/06/09 00:59:00;;;;;;;18.90;5.45;;;;;;;17.76;71.06;101280.28;4980101;28;20030;-63
2023/06/09 01:01:28;;;;;;;19.17;5.57;;;;;;;17.66;72.21;101276.88;4978116;28;20489;-63
2023/06/09 01:03:54;;;;;;;20.60;5.93;;;;;;;17.68;71.89;101279.53;4979722;28;20065;-62
2023/06/09 01:06:32;;;;;;;19.25;5.60;;;;;;;17.62;72.17;101274.31;4978594;28;20042;-64
2023/06/09 01:09:25;;;;;;;20.17;6.07;;;;;;;17.58;72.31;101273.50;4977974;28;20053;-62
2023/06/09 01:11:58;;;;;;;20.20;6.05;;;;;;;17.57;72.53;101269.03;4975804;28;20026;-62
2023/06/09 01:14:31;;;;;;;20.17;5.82;;;;;;;17.49;72.64;101276.31;4970611;28;20031;-63
2023/06/09 01:17:08;;;;;;;20.92;5.57;;;;;;;17.39;73.47;101271.13;4972409;28;20042;-62
2023/06/09 01:19:43;;;;;;;19.88;6.05;;;;;;;17.39;73.40;101260.44;4978272;28;20081;-62
2023/06/09 01:22:47;;;;;;;20.40;6.07;;;;;;;17.32;73.47;101266.81;4975782;28;20038;-62
2023/06/09 01:25:34;;;;;;;18.75;5.85;;;;;;;17.26;74.07;101264.25;4975421;28;20034;-63
2023/06/09 01:28:05;;;;;;;19.55;6.20;;;;;;;17.14;76.28;101260.00;4973537;28;20086;-63
2023/06/09 01:30:32;;;;;;;20.48;5.65;;;;;;;17.07;76.37;101261.88;4973619;28;20489;-62
2023/06/09 01:33:01;;;;;;;20.50;5.90;;;;;;;17.13;75.77;101257.34;4973333;28;20074;-62
2023/06/09 01:35:27;;;;;;;21.20;6.10;;;;;;;17.10;76.24;101252.06;4973074;28;20113;-63
2023/06/09 01:37:54;;;;;;;19.55;5.90;;;;;;;17.10;76.28;101254.72;4974676;28;20480;-62
2023/06/09 01:40:20;;;;;;;19.02;5.63;;;;;;;17.05;76.00;101257.44;4976078;28;20801;-62
2023/06/09 01:42:45;;;;;;;20.42;6.35;;;;;;;17.08;76.36;101250.28;4973165;28;20023;-62
2023/06/09 01:45:10;;;;;;;19.25;5.60;;;;;;;17.05;76.51;101249.44;4973226;28;20045;-63
2023/06/09 01:47:36;;;;;;;18.80;5.78;;;;;;;17.02;76.39;101249.50;4976110;28;20034;-61
2023/06/09 01:50:04;;;;;;;20.05;5.93;;;;;;;16.95;76.94;101259.41;4971793;28;20170;-62
2023/06/09 01:52:58;;;;;;;20.90;5.70;;;;;;;16.98;76.79;101254.00;4975417;28;20032;-62
2023/06/09 01:55:29;;;;;;;20.45;6.10;;;;;;;16.91;78.02;101255.00;4975311;28;20023;-62
2023/06/09 01:58:26;;;;;;;20.70;6.07;;;;;;;16.89;76.89;101256.81;4973003;28;20035;-62
2023/06/09 02:00:53;;;;;;;20.02;5.60;;;;;;;16.82;78.43;101252.44;4972273;28;20030;-62
2023/06/09 02:03:22;;;;;;;20.88;6.03;;;;;;;16.71;79.96;101260.59;4977888;28;20051;-62
2023/06/09 02:05:51;;;;;;;20.52;6.18;;;;;;;16.63;80.38;101252.72;4973628;28;20421;-62
2023/06/09 02:08:17;;;;;;;18.88;5.68;;;;;;;16.61;80.21;101253.63;4982893;28;20452;-62
2023/06/09 02:10:43;;;;;;;19.88;5.88;;;;;;;16.61;81.43;101243.84;4979379;28;20026;-62
2023/06/09 02:13:18;;;;;;;20.50;5.45;;;;;;;16.61;80.46;101243.84;4981338;28;20047;-62
2023/06/09 02:15:44;;;;;;;19.70;5.78;;;;;;;16.59;81.19;101240.31;4979588;28;20160;-62
2023/06/09 02:18:11;;;;;;;19.58;5.88;;;;;;;16.47;82.15;101237.81;4984642;28;20042;-62
2023/06/09 02:20:42;;;;;;;20.35;6.15;;;;;;;16.43;84.23;101228.09;4989139;28;20027;-62
2023/06/09 02:23:07;;;;;;;20.02;5.80;;;;;;;16.44;83.57;101238.75;4980041;28;20030;-62
2023/06/09 02:25:33;;;;;;;18.98;5.90;;;;;;;16.37;84.03;101229.06;4985889;28;20352;-62
2023/06/09 02:28:01;;;;;;;19.90;6.05;;;;;;;16.44;84.30;101233.41;4978525;28;20035;-63
2023/06/09 02:30:27;;;;;;;20.45;5.93;;;;;;;16.35;84.85;101226.44;4976833;28;20034;-61
2023/06/09 02:32:53;;;;;;;19.63;6.00;;;;;;;16.22;85.61;101230.13;4978996;28;20457;-63
2023/06/09 02:35:18;;;;;;;21.27;6.50;;;;;;;16.20;86.25;101230.16;4982808;28;20041;-61
2023/06/09 02:37:44;;;;;;;20.33;6.55;;;;;;;16.15;87.07;101229.34;4979629;28;20125;-62
2023/06/09 02:40:10;;;;;;;19.02;5.80;;;;;;;16.08;87.49;101224.13;4982820;28;20030;-62
2023/06/09 02:42:35;;;;;;;18.80;5.82;;;;;;;16.12;88.45;101228.50;4981427;28;20042;-62
2023/06/09 02:45:01;;;;;;;22.17;6.75;;;;;;;16.00;89.71;101225.09;4980147;28;20121;-63
2023/06/09 02:47:26;;;;;;;19.52;6.22;;;;;;;15.93;90.70;101228.72;4981509;28;20478;-63
2023/06/09 02:49:52;;;;;;;19.73;6.05;;;;;;;15.85;90.99;101226.13;4983466;28;20092;-62
2023/06/09 02:52:17;;;;;;;21.35;6.35;;;;;;;15.93;90.70;101228.72;4982997;28;20077;-63
2023/06/09 02:54:43;;;;;;;20.60;6.28;;;;;;;15.91;91.10;101229.66;4976425;28;20035;-62
2023/06/09 02:57:09;;;;;;;20.38;6.50;;;;;;;15.80;92.44;101227.09;4982571;28;20030;-63
2023/06/09 02:59:34;;;;;;;21.42;6.13;;;;;;;15.86;92.63;101233.25;4978890;28;20065;-62
2023/06/09 03:02:00;;;;;;;20.23;6.00;;;;;;;15.81;92.64;101239.53;4980199;28;20114;-63
2023/06/09 03:04:25;;;;;;;21.35;6.10;;;;;;;15.68;94.06;101223.66;4976136;28;20059;-62
2023/06/09 03:06:53;;;;;;;20.23;6.18;;;;;;;15.74;93.89;101232.47;4980604;28;20026;-62
2023/06/09 03:09:19;;;;;;;20.55;6.43;;;;;;;15.71;96.27;101233.38;4976326;28;20034;-62
2023/06/09 03:11:45;;;;;;;20.95;6.28;;;;;;;15.74;95.96;101235.13;4975717;28;20031;-63
2023/06/09 03:14:10;;;;;;;20.92;6.05;;;;;;;15.65;96.39;101246.75;4976930;28;20037;-62
2023/06/09 03:16:36;;;;;;;20.38;6.20;;;;;;;15.58;98.16;101240.63;4977697;28;20388;-62
2023/06/09 03:19:01;;;;;;;21.55;6.60;;;;;;;15.49;99.55;101240.69;4978805;28;20035;-62
2023/06/09 03:21:26;;;;;;;20.42;6.40;;;;;;;15.40;100.00;101240.81;4981691;28;20022;-62
2023/06/09 03:23:52;;;;;;;21.70;5.93;;;;;;;15.39;100.00;101241.69;4975911;28;20453;-62
2023/06/09 03:26:20;;;;;;;20.08;6.55;;;;;;;15.34;100.00;101247.94;4978432;28;20026;-62
2023/06/09 03:28:45;;;;;;;20.20;6.25;;;;;;;15.39;100.00;101239.94;4979147;28;20042;-62
2023/06/09 03:31:13;;;;;;;21.17;6.65;;;;;;;15.42;100.00;101246.97;4979889;28;20507;-62
2023/06/09 03:33:38;;;;;;;19.88;6.38;;;;;;;15.37;100.00;101246.16;4978667;28;20035;-62
2023/06/09 03:36:04;;;;;;;22.00;6.70;;;;;;;15.38;100.00;101245.25;4975999;28;20430;-62
2023/06/09 03:38:30;;;;;;;20.80;6.25;;;;;;;15.42;100.00;101237.22;4981449;28;20102;-62
2023/06/09 03:40:55;;;;;;;21.08;6.63;;;;;;;15.40;100.00;101247.00;4978609;28;20038;-62
2023/06/09 03:43:20;;;;;;;20.33;6.45;;;;;;;15.46;100.00;101243.41;4977208;28;20053;-62
2023/06/09 03:45:46;;;;;;;19.92;6.25;;;;;;;15.34;100.00;101249.72;4973957;28;20477;-62
2023/06/09 03:48:11;;;;;;;21.00;6.40;;;;;;;15.27;100.00;101258.66;4977351;28;20035;-62
2023/06/09 03:50:36;;;;;;;21.02;7.15;;;;;;;15.26;100.00;101256.88;4982000;28;20470;-62
2023/06/09 03:53:02;;;;;;;20.95;6.45;;;;;;;15.08;100.00;101274.78;4978821;28;20121;-62
2023/06/09 03:55:31;;;;;;;21.33;6.78;;;;;;;14.95;100.00;101270.44;4975094;28;20022;-62
2023/06/09 03:57:56;;;;;;;21.88;6.90;;;;;;;14.97;100.00;101266.88;4975441;28;20389;-62
2023/06/09 04:00:22;;;;;;;20.35;6.55;;;;;;;14.91;100.00;101260.72;4975257;28;20041;-62
2023/06/09 04:02:47;;;;;;;21.58;7.07;;;;;;;14.94;100.00;101266.00;4974523;28;20051;-62
2023/06/09 04:05:13;;;;;;;22.45;7.20;;;;;;;14.92;100.00;101263.34;4979506;28;20066;-62
2023/06/09 04:07:39;;;;;;;20.48;6.75;;;;;;;14.88;100.00;101268.72;4982106;28;20473;-62
2023/06/09 04:10:05;;;;;;;23.38;7.13;;;;;;;14.94;100.00;101264.25;4978734;28;20049;-62
2023/06/09 04:12:31;;;;;;;21.50;7.10;;;;;;;14.93;100.00;101265.13;4977470;28;20031;-62
2023/06/09 04:14:56;;;;;;;22.95;6.80;;;;;;;14.96;100.00;101267.78;4974587;28;20030;-62
2023/06/09 04:17:24;;;;;;;23.42;7.57;;;;;;;14.96;100.00;101272.22;4976960;28;20465;-62
2023/06/09 04:19:51;;;;;;;21.42;7.18;;;;;;;14.98;100.00;101276.66;4979678;28;20093;-62
2023/06/09 04:22:16;;;;;;;22.60;7.50;;;;;;;15.05;100.00;101272.16;4978191;28;20034;-62
2023/06/09 04:24:42;;;;;;;21.60;6.97;;;;;;;15.03;100.00;101276.63;4977567;28;20030;-62
2023/06/09 04:27:08;;;;;;;23.38;7.55;;;;;;;15.07;100.00;101277.47;4980658;28;20612;-62
2023/06/09 04:29:34;;;;;;;22.60;7.30;;;;;;;15.04;100.00;101269.50;4981087;28;20113;-62
2023/06/09 04:32:00;;;;;;;21.05;6.95;;;;;;;15.16;100.00;101278.28;4979476;28;20050;-62
2023/06/09 04:34:29;;;;;;;22.05;7.65;;;;;;;15.16;100.00;101274.75;4980862;28;20385;-63
2023/06/09 04:36:59;;;;;;;21.97;7.57;;;;;;;15.18;100.00;101274.72;4974162;28;20030;-63
2023/06/09 04:39:25;;;;;;;21.33;8.10;;;;;;;15.22;100.00;101273.78;4974592;28;20038;-63
2023/06/09 04:41:53;;;;;;;21.58;7.90;;;;;;;15.20;100.00;101275.59;4977821;28;20113;-63
2023/06/09 04:44:20;;;;;;;21.73;7.82;;;;;;;15.21;100.00;101275.56;4974108;28;20042;-62
2023/06/09 04:46:46;;;;;;;21.73;8.07;;;;;;;15.28;100.00;101274.63;4977639;28;20113;-63
2023/06/09 04:49:12;;;;;;;23.05;8.57;;;;;;;15.32;100.00;101280.84;4977994;28;20474;-63
2023/06/09 04:51:46;;;;;;;23.02;8.77;;;;;;;15.34;100.00;101282.56;4974104;28;20050;-62
2023/06/09 04:54:16;;;;;;;22.45;8.30;;;;;;;15.36;100.00;101281.69;4976189;28;20027;-62
2023/06/09 04:56:52;;;;;;;23.27;8.50;;;;;;;15.37;100.00;101273.66;4971372;28;20027;-62
2023/06/09 04:59:20;;;;;;;22.95;7.82;;;;;;;15.43;100.00;101280.72;4975177;28;20085;-64
2023/06/09 05:01:47;;;;;;;22.73;8.32;;;;;;;15.51;100.00;101286.88;4979516;28;20074;-63
2023/06/09 05:04:13;;;;;;;22.67;8.48;;;;;;;15.52;100.00;101286.88;4974774;28;20405;-62
2023/06/09 05:06:39;;;;;;;24.60;8.73;;;;;;;15.49;100.00;101275.34;4977326;28;20031;-63
2023/06/09 05:09:06;;;;;;;24.45;8.70;;;;;;;15.56;100.00;101285.03;4978076;28;20039;-62
2023/06/09 05:11:32;;;;;;;24.42;8.77;;;;;;;15.56;100.00;101282.38;4980261;28;20035;-63
2023/06/09 05:13:57;;;;;;;22.73;8.55;;;;;;;15.63;100.00;101286.75;4976224;28;20034;-63
2023/06/09 05:16:25;;;;;;;22.77;8.57;;;;;;;15.72;100.00;101274.25;4978252;28;20109;-61
2023/06/09 05:18:52;;;;;;;22.67;8.35;;;;;;;15.77;100.00;101280.41;4974231;28;20080;-64
2023/06/09 05:21:17;;;;;;;22.70;8.27;;;;;;;15.83;100.00;101285.72;4978220;28;20027;-63
2023/06/09 05:23:42;;;;;;;24.27;8.63;;;;;;;15.83;100.00;101283.06;4977561;28;20038;-62
2023/06/09 05:26:08;;;;;;;21.85;8.15;;;;;;;15.85;100.00;101290.09;4979140;28;20029;-62
2023/06/09 05:28:33;;;;;;;23.45;8.30;;;;;;;15.89;100.00;101285.66;4979415;28;20030;-62
2023/06/09 05:30:58;;;;;;;22.55;8.70;;;;;;;15.98;100.00;101279.34;4976708;28;20033;-63
2023/06/09 05:33:24;;;;;;;21.05;7.95;;;;;;;16.07;100.00;101284.53;4976001;28;20385;-64
2023/06/09 05:35:49;;;;;;;22.60;8.35;;;;;;;16.10;100.00;101283.63;4973145;28;20038;-63
2023/06/09 05:38:15;;;;;;;22.92;8.50;;;;;;;16.15;100.00;101282.69;4974094;28;20851;-62
2023/06/09 05:40:41;;;;;;;24.13;8.43;;;;;;;16.20;100.00;101294.16;4977321;28;20387;-62
2023/06/09 05:43:06;;;;;;;22.30;8.80;;;;;;;16.25;100.00;101293.22;4975916;28;20030;-63
2023/06/09 05:45:31;;;;;;;22.70;8.90;;;;;;;16.34;100.00;101286.00;4972867;28;20522;-64
2023/06/09 05:47:57;;;;;;;22.88;9.27;;;;;;;16.38;100.00;101301.06;4973355;28;20038;-62
2023/06/09 05:50:22;;;;;;;23.90;9.63;;;;;;;16.49;100.00;101295.59;4974185;28;20030;-62
2023/06/09 05:52:47;;;;;;;24.58;9.25;;;;;;;16.54;100.00;101290.19;4979156;28;20054;-63
2023/06/09 05:55:16;;;;;;;23.60;9.38;;;;;;;16.60;100.00;101287.47;4973202;28;20045;-62
2023/06/09 05:57:43;;;;;;;24.83;9.45;;;;;;;16.65;100.00;101288.25;4972857;28;20043;-63
2023/06/09 06:00:09;;;;;;;23.73;9.88;;;;;;;16.66;100.00;101289.13;4973238;28;20035;-63
2023/06/09 06:02:34;;;;;;;23.73;9.80;;;;;;;16.70;100.00;101286.44;4972117;28;20047;-63
2023/06/09 06:05:01;;;;;;;24.02;9.85;;;;;;;16.74;100.00;101282.78;4972471;28;20035;-62
2023/06/09 06:07:26;;;;;;;23.63;9.73;;;;;;;16.81;100.00;101282.72;4974789;28;20078;-64
2023/06/09 06:09:52;;;;;;;22.67;9.57;;;;;;;16.85;100.00;101279.97;4975501;28;20081;-62
2023/06/09 06:12:17;;;;;;;24.98;10.15;;;;;;;16.89;100.00;101281.75;4977588;28;20051;-60
2023/06/09 06:14:42;;;;;;;24.80;10.15;;;;;;;16.97;100.00;101289.63;4979490;28;20027;-62
2023/06/09 06:17:08;;;;;;;23.35;10.40;;;;;;;17.02;100.00;101287.78;4973695;28;20079;-60
2023/06/09 06:19:33;;;;;;;23.15;9.90;;;;;;;17.10;100.00;101279.63;4978801;28;20474;-60
2023/06/09 06:21:58;;;;;;;26.23;10.60;;;;;;;17.17;100.00;101285.75;4978548;28;20489;-61
2023/06/09 06:24:24;;;;;;;25.88;10.60;;;;;;;17.22;100.00;101284.75;4977026;28;20482;-62
2023/06/09 06:26:49;;;;;;;24.98;10.68;;;;;;;17.28;100.00;101278.44;4976458;28;20121;-63
2023/06/09 06:29:14;;;;;;;23.13;10.40;;;;;;;17.33;100.00;101297.06;4979223;28;20043;-63
2023/06/09 06:31:40;;;;;;;23.85;10.23;;;;;;;17.37;100.00;101291.66;4975927;28;20027;-62
2023/06/09 06:34:05;;;;;;;24.83;10.90;;;;;;;17.45;100.00;101290.66;4979251;28;20397;-61
2023/06/09 06:36:31;;;;;;;22.75;10.32;;;;;;;17.51;100.00;101287.88;4976246;28;20381;-61
2023/06/09 06:38:57;;;;;;;24.50;10.75;;;;;;;17.62;100.00;101290.34;4976057;28;20384;-62
2023/06/09 06:41:22;;;;;;;24.73;10.98;;;;;;;17.71;100.00;101288.41;4977378;28;20030;-62
2023/06/09 06:43:49;;;;;;;25.38;10.98;;;;;;;17.81;100.00;101282.88;4974886;28;20105;-63
2023/06/09 06:46:17;;;;;;;24.70;11.20;;;;;;;17.89;100.00;101297.84;4971212;28;20035;-61
2023/06/09 06:48:42;;;;;;;28.58;11.50;;;;;;;17.96;100.00;101285.28;4972249;28;20042;-62
2023/06/09 06:51:08;;;;;;;24.35;11.18;;;;;;;18.03;100.00;101283.41;4972544;28;20019;-62
2023/06/09 06:53:36;;;;;;;23.33;11.00;;;;;;;18.12;100.00;101292.09;4973861;28;20110;-63
2023/06/09 06:56:01;;;;;;;24.10;11.35;;;;;;;18.17;100.00;101288.44;4980737;28;20110;-62
2023/06/09 06:58:28;;;;;;;24.48;11.48;;;;;;;18.26;100.00;101281.13;4976184;28;20671;-63
2023/06/09 07:00:56;;;;;;;25.27;11.80;;;;;;;18.33;100.00;101284.53;4975470;28;20109;-63
2023/06/09 07:03:25;;;;;;;24.63;11.43;;;;;;;18.40;100.00;101282.63;4975470;28;20047;-64
2023/06/09 07:05:52;;;;;;;26.00;11.30;;;;;;;18.52;100.00;101286.81;4976049;28;20037;-62
2023/06/09 07:08:18;;;;;;;25.70;12.15;;;;;;;18.63;100.00;101291.03;4975460;28;20404;-63
2023/06/09 07:10:43;;;;;;;24.60;11.70;;;;;;;18.74;100.00;101289.91;4975516;28;20034;-63
2023/06/09 07:13:09;;;;;;;22.83;11.57;;;;;;;18.82;100.00;101291.50;4975867;28;20037;-63
2023/06/09 07:15:36;;;;;;;25.02;12.05;;;;;;;18.97;100.00;101292.09;4979412;28;20027;-63
2023/06/09 07:18:03;;;;;;;24.67;11.90;;;;;;;19.11;100.00;101300.69;4981286;28;20105;-62
2023/06/09 07:20:28;;;;;;;25.10;12.27;;;;;;;19.20;100.00;101296.91;4978684;28;20473;-63
2023/06/09 07:22:53;;;;;;;25.70;11.82;;;;;;;19.33;100.00;101300.16;4976312;28;20093;-64
2023/06/09 07:25:19;;;;;;;25.45;12.13;;;;;;;19.45;100.00;101302.50;4975843;28;20058;-63
2023/06/09 07:27:45;;;;;;;26.35;12.05;;;;;;;19.53;100.00;101305.03;4981714;28;20046;-61
2023/06/09 07:30:11;;;;;;;25.15;11.85;;;;;;;19.62;100.00;101301.22;4981610;28;20025;-64
2023/06/09 07:32:39;;;;;;;23.80;11.80;;;;;;;19.73;100.00;101301.81;4981522;28;20037;-63
2023/06/09 07:35:04;;;;;;;25.42;12.25;;;;;;;19.81;99.97;101298.97;4979630;28;20075;-63
2023/06/09 07:37:30;;;;;;;29.00;12.10;;;;;;;19.97;98.59;101294.94;4980124;28;20389;-62
2023/06/09 07:39:56;;;;;;;25.00;12.00;;;;;;;20.10;93.98;101295.47;4981475;28;20034;-63
2023/06/09 07:42:21;;;;;;;23.30;11.65;;;;;;;20.20;94.23;101296.09;4975103;28;20034;-64
2023/06/09 07:44:47;;;;;;;23.27;10.88;;;;;;;20.41;91.52;101302.63;4974582;28;20038;-63
2023/06/09 07:47:12;;;;;;;23.52;11.25;;;;;;;20.58;90.95;101301.28;4975605;28;20031;-64
2023/06/09 07:49:38;;;;;;;23.75;11.25;;;;;;;20.71;86.49;101297.31;4975175;28;20027;-64
2023/06/09 07:52:04;;;;;;;23.25;11.18;;;;;;;20.85;86.78;101300.44;4979792;28;20035;-64
2023/06/09 07:54:29;;;;;;;23.02;11.05;;;;;;;21.01;86.81;101294.56;4981384;28;20489;-63
2023/06/09 07:56:55;;;;;;;23.50;11.52;;;;;;;21.16;84.82;101296.78;4977884;28;20045;-63
2023/06/09 07:59:21;;;;;;;24.13;11.25;;;;;;;21.32;82.99;101294.47;4973712;28;20549;-62
2023/06/09 08:01:46;;;;;;;22.98;11.38;;;;;;;21.48;80.49;101292.13;4974081;28;20110;-64
2023/06/09 08:04:12;;;;;;;24.40;11.55;;;;;;;21.64;78.28;101297.91;4974284;28;20069;-63
2023/06/09 08:06:37;;;;;;;23.27;11.18;;;;;;;21.73;77.76;101284.09;4973510;28;20062;-62
2023/06/09 08:09:04;;;;;;;21.90;10.60;;;;;;;21.89;77.64;101299.72;4975241;28;20069;-63
2023/06/09 08:11:29;;;;;;;21.75;10.30;;;;;;;22.11;76.96;101295.28;4974696;28;20029;-63
2023/06/09 08:13:54;;;;;;;22.98;10.90;;;;;;;22.23;73.02;101293.09;4975978;28;20022;-63
2023/06/09 08:16:20;;;;;;;23.98;10.73;;;;;;;22.42;72.36;101287.91;4980260;28;20042;-63
2023/06/09 08:18:45;;;;;;;23.00;11.70;;;;;;;22.53;71.58;101290.19;4973914;28;20097;-63
2023/06/09 08:21:11;;;;;;;22.38;11.25;;;;;;;22.66;70.99;101285.19;4974725;28;20105;-62
2023/06/09 08:23:37;;;;;;;22.52;10.70;;;;;;;22.84;70.91;101279.09;4974518;28;20043;-62
2023/06/09 08:26:02;;;;;;;22.92;10.88;;;;;;;23.01;70.40;101278.41;4974485;28;20370;-62
2023/06/09 08:28:28;;;;;;;21.52;10.07;;;;;;;23.18;68.12;101283.13;4979117;28;20185;-63
2023/06/09 08:30:53;;;;;;;21.92;9.60;;;;;;;23.31;65.71;101280.78;4979822;28;20060;-63
2023/06/09 08:33:19;;;;;;;21.40;9.55;;;;;;;23.48;66.97;101288.19;4971225;28;20057;-62
2023/06/09 08:35:44;;;;;;;22.42;9.73;;;;;;;23.56;64.93;101280.66;4968067;28;20030;-62
2023/06/09 08:38:10;;;;;;;21.90;10.05;;;;;;;23.72;64.21;101278.16;4974366;28;20085;-62
2023/06/09 08:40:35;;;;;;;22.52;9.85;;;;;;;23.87;61.29;101283.81;4966973;28;20478;-62
2023/06/09 08:43:03;;;;;;;23.38;9.63;;;;;;;24.04;62.64;101280.38;4973870;28;20110;-62
2023/06/09 08:45:32;;;;;;;21.15;9.52;;;;;;;24.13;60.65;101280.84;4976398;28;20030;-62
2023/06/09 08:48:01;;;;;;;21.02;9.43;;;;;;;24.33;61.05;101292.53;4980381;28;20381;-62
2023/06/09 08:50:31;;;;;;;22.38;9.60;;;;;;;24.52;59.92;101284.44;4974701;28;20504;-62
2023/06/09 08:52:57;;;;;;;22.90;9.68;;;;;;;24.68;59.24;101280.13;4967072;28;20043;-61
2023/06/09 08:55:23;;;;;;;22.17;9.52;;;;;;;24.89;57.38;101283.59;4970714;28;20034;-61
2023/06/09 08:57:49;;;;;;;21.48;9.77;;;;;;;25.08;58.49;101281.81;4966786;28;20062;-62
2023/06/09 09:00:16;;;;;;;21.48;9.82;;;;;;;25.18;59.16;101285.81;4964056;28;20031;-61
2023/06/09 09:02:42;;;;;;;21.77;9.88;;;;;;;25.33;56.67;101276.97;4968302;28;20113;-61
2023/06/09 09:05:09;;;;;;;23.60;9.88;;;;;;;25.48;56.55;101275.28;4961890;28;20027;-61
2023/06/09 09:07:35;;;;;;;21.52;9.88;;;;;;;25.64;55.01;101272.66;4964972;28;20027;-61
2023/06/09 09:10:01;;;;;;;22.27;10.10;;;;;;;25.79;54.69;101272.81;4963659;28;20042;-62
2023/06/09 09:12:26;;;;;;;21.35;9.50;;;;;;;25.90;54.12;101276.69;4965271;28;20038;-61
2023/06/09 09:17:27;;;;;;;21.70;9.80;;;;;;;25.99;53.26;101269.03;5255774;23;20684;-58
2023/06/09 09:19:54;;;;;;;20.33;9.50;;;;;;;26.12;53.22;101272.00;4991346;28;20026;-58
2023/06/09 09:22:19;;;;;;;20.65;10.13;;;;;;;26.09;52.47;101264.91;4987318;28;20161;-63
2023/06/09 09:24:46;;;;;;;22.10;10.02;;;;;;;26.23;52.84;101264.16;4992456;28;20145;-59
2023/06/09 09:27:22;;;;;;;20.58;9.73;;;;;;;26.52;51.57;101256.22;4991781;28;20485;-62
2023/06/09 09:29:48;;;;;;;21.27;9.85;;;;;;;26.69;50.53;101261.59;4990935;28;20077;-66
2023/06/09 09:32:14;;;;;;;21.77;9.73;;;;;;;26.91;50.33;101254.94;4992086;28;20030;-61
2023/06/09 09:34:41;;;;;;;21.38;8.95;;;;;;;27.09;50.13;101261.16;4990553;28;20038;-60
2023/06/09 09:37:11;;;;;;;20.75;9.60;;;;;;;27.33;47.70;101258.81;4991744;28;20042;-61
2023/06/09 09:39:47;;;;;;;23.55;8.60;;;;;;;27.53;48.85;101257.66;4991763;28;20030;-70
2023/06/09 09:42:12;;;;;;;21.38;8.63;;;;;;;27.75;47.18;101251.78;4990648;28;20034;-70
2023/06/09 09:44:42;;;;;;;20.88;8.80;;;;;;;27.68;44.87;101257.69;4991210;28;20030;-69
2023/06/09 09:47:15;;;;;;;21.45;9.20;;;;;;;27.72;45.55;101249.25;4991687;28;20038;-68
2023/06/09 09:49:56;;;;;;;21.48;9.10;;;;;;;27.83;45.30;101245.88;4993112;28;20072;-68
2023/06/09 09:52:34;;;;;;;21.63;9.02;;;;;;;28.05;45.42;101245.44;4989011;28;20034;-68
2023/06/09 09:55:03;;;;;;;21.90;8.93;;;;;;;28.03;43.51;101241.94;4991098;28;20030;-70
2023/06/09 09:57:30;;;;;;;22.35;9.00;;;;;;;28.30;44.01;101242.03;4991562;28;20476;-70
2023/06/09 09:59:56;;;;;;;19.80;7.65;;;;;;;28.74;42.74;101242.84;4991370;28;20348;-67
2023/06/09 10:02:24;;;;;;;19.13;8.15;;;;;;;28.83;41.45;101241.34;4990213;28;20512;-68
2023/06/09 10:04:50;;;;;;;18.65;7.70;;;;;;;29.29;39.48;101243.72;4991454;28;20022;-71
2023/06/09 10:07:21;;;;;;;20.25;7.53;;;;;;;30.97;37.84;101241.75;4991932;28;20025;-71
2023/06/09 10:09:49;;;;;;;20.67;8.15;;;;;;;32.30;34.42;101236.88;4983184;28;20078;-70
2023/06/09 10:12:16;;;;;;;20.05;7.63;;;;;;;33.60;33.20;101243.34;4983587;28;20533;-70
2023/06/09 10:14:42;;;;;;;20.08;6.72;;;;;;;34.79;30.39;101232.81;4983843;28;20037;-71
2023/06/09 10:17:08;;;;;;;19.98;6.88;;;;;;;35.71;28.82;101241.59;4977609;28;20129;-65
2023/06/09 10:19:34;;;;;;;17.80;6.72;;;;;;;36.21;27.40;101241.31;4972309;28;20138;-71
2023/06/09 10:22:01;;;;;;;19.52;7.35;;;;;;;36.12;27.73;101237.56;4975716;28;20583;-73
2023/06/09 10:24:27;;;;;;;18.45;7.00;;;;;;;36.18;27.23;101238.00;4977480;28;20035;-74
2023/06/09 10:26:53;;;;;;;18.20;7.03;;;;;;;37.08;27.17;101233.56;4974100;28;20060;-68
2023/06/09 10:29:19;;;;;;;18.15;6.95;;;;;;;37.35;25.97;101233.66;4981433;28;20113;-66
2023/06/09 10:31:46;;;;;;;19.65;6.80;;;;;;;37.45;25.33;101232.50;4982983;28;20473;-73
2023/06/09 10:34:15;;;;;;;19.83;7.53;;;;;;;37.32;25.56;101232.06;4982355;28;20023;-61
2023/06/09 10:36:41;;;;;;;18.33;7.80;;;;;;;36.62;25.76;101221.69;4982866;28;20039;-65
2023/06/09 10:39:30;;;;;;;18.70;7.03;;;;;;;36.64;27.09;101219.66;4981606;28;20528;-62
2023/06/09 10:42:05;;;;;;;18.77;7.15;;;;;;;37.22;25.59;101234.88;4980324;28;20030;-59
2023/06/09 10:44:38;;;;;;;21.05;7.65;;;;;;;37.60;25.01;101231.94;4978539;28;20019;-65
2023/06/09 10:47:03;;;;;;;19.33;8.27;;;;;;;36.90;27.09;101219.81;4980357;28;20022;-61
2023/06/09 10:49:35;;;;;;;20.10;8.82;;;;;;;37.12;26.37;101215.69;4983110;28;20560;-65
2023/06/09 10:52:27;;;;;;;19.23;8.38;;;;;;;37.29;25.99;101218.59;4979871;28;20039;-59
2023/06/09 10:55:13;;;;;;;19.50;7.32;;;;;;;37.73;26.86;101215.84;4963247;28;20101;-66
2023/06/09 10:57:39;;;;;;;18.88;6.90;;;;;;;37.98;24.88;101208.59;4979309;28;20234;-64
2023/06/09 11:00:11;;;;;;;18.13;7.45;;;;;;;37.58;25.34;101211.94;4982149;28;20141;-73
2023/06/09 11:02:38;;;;;;;17.85;7.20;;;;;;;36.52;26.76;101205.25;4979946;28;20031;-74
2023/06/09 11:05:03;;;;;;;17.50;6.72;;;;;;;35.76;28.40;101209.88;4978039;28;20132;-61
2023/06/09 11:07:32;;;;;;;19.08;7.97;;;;;;;35.07;28.07;101200.03;4981010;28;20412;-64
2023/06/09 11:09:58;;;;;;;19.52;7.68;;;;;;;34.39;29.81;101198.88;4979229;28;20185;-63
2023/06/09 11:12:46;;;;;;;20.93;8.53;;;;;;;34.02;30.39;101196.72;4977495;28;20515;-59
2023/06/09 11:15:15;;;;;;;20.65;8.20;;;;;;;33.95;30.91;101195.53;4982988;28;20392;-70